KFLD

Fond Du Lac County Airport

Fond Du Lac, Wisconsin, USA
METAR KFLD 151453Z AUTO 00000KT 9SM CLR 24/19 A2996 RMK AO2 SLP140 T02390194 58001
Observed Flight Rules
Aug-15 @ 14:53 UTC (8 minutes ago) Visual Flight Rules
Visibility Clouds
9 miles
  • Clear skies
Temperatures Readings
Current 24°C / 75°F
Dewpoint 19°C / 66°F
Humidity 74%
Altimeter 29.96" Hg
Pressure 1014 hPa
Elevation 240
METAR KFLD 151453Z AUTO 00000KT 9SM CLR 24/19 A2996 RMK AO2 SLP140 T02390194 58001
Observed Flight Rules
Aug-15 @ 14:53 UTC
(8 minutes ago)
VFR
Clouds
  • Clear skies
Temperature Dewpoint
24°C / 75°F 19°C / 66°F
Humidity Altimeter Pressure
74% 29.96" Hg 1014 hPa